Terminal Aerodrome Forecast
Issued by NWS Charleston, SC

Home | Current Version | Previous Version | Text Only | Print | Product List | Glossary On
Versions: 1 2 3 4 5 6 7 8 9 10 11 12 13 14 15 16 17 18 19
000
FTUS42 KCHS 300702 AAA
TAFCHS
TAF AMD
KCHS 300702Z 3007/3106 VRB03KT 6SM FU SCT025
     FM301100 VRB04KT P6SM VCSH SCT015 BKN035
     FM301500 12008KT P6SM VCSH SCT020 BKN040
     FM301800 14012G18KT P6SM FEW030
     FM310030 14005KT P6SM FEW025=

USA.gov is the U.S. government's official web portal to all federal, state and local government web resources and services.